createdAt,value
2022-12-19T00:00:34.488Z,3.30
2022-12-19T00:03:02.341Z,3.63
2022-12-19T00:05:30.195Z,3.65
2022-12-19T00:07:58.975Z,4.13
2022-12-19T00:10:29.546Z,4.10
2022-12-19T00:12:58.665Z,3.60
2022-12-19T00:15:26.420Z,3.15
2022-12-19T00:17:54.180Z,3.35
2022-12-19T00:20:23.811Z,4.80
2022-12-19T00:22:51.566Z,2.80
2022-12-19T00:25:19.517Z,4.25
2022-12-19T00:27:48.356Z,4.63
2022-12-19T00:30:17.758Z,4.10
2022-12-19T00:32:45.578Z,3.17
2022-12-19T00:35:13.302Z,3.75
2022-12-19T00:37:45.472Z,3.38
2022-12-19T00:40:18.211Z,3.30
2022-12-19T00:42:51.688Z,3.80
2022-12-19T00:45:22.790Z,2.72
2022-12-19T00:47:50.554Z,3.60
2022-12-19T00:50:18.429Z,4.88
2022-12-19T00:52:46.204Z,3.78
2022-12-19T00:55:18.613Z,3.88
2022-12-19T00:57:47.463Z,4.35
2022-12-19T01:00:18.045Z,3.65
2022-12-19T01:02:47.382Z,4.13
2022-12-19T01:05:15.354Z,4.95
2022-12-19T01:07:43.089Z,4.90
2022-12-19T01:10:11.493Z,3.97
2022-12-19T01:12:47.364Z,4.03
2022-12-19T01:15:20.366Z,3.08
2022-12-19T01:17:50.252Z,4.60
2022-12-19T01:20:29.262Z,3.22
2022-12-19T01:23:00.522Z,4.53
2022-12-19T01:25:29.214Z,3.13
2022-12-19T01:27:57.713Z,3.40
2022-12-19T01:30:26.029Z,2.58
2022-12-19T01:32:56.466Z,2.75
2022-12-19T01:35:25.252Z,4.47
2022-12-19T01:38:07.912Z,2.83
2022-12-19T01:40:37.770Z,2.60
2022-12-19T01:43:06.589Z,3.72
2022-12-19T01:45:43.542Z,4.47
2022-12-19T01:48:21.160Z,2.53
2022-12-19T01:51:02.077Z,3.50
2022-12-19T01:53:48.459Z,3.45
2022-12-19T01:56:22.976Z,3.38
2022-12-19T01:59:05.066Z,3.80
2022-12-19T02:01:35.463Z,2.65
2022-12-19T02:04:08.927Z,3.60
2022-12-19T02:06:39.072Z,3.33
2022-12-19T02:09:06.994Z,2.83
2022-12-19T02:11:34.762Z,2.42
2022-12-19T02:14:02.682Z,3.22
2022-12-19T02:16:43.695Z,4.68
2022-12-19T02:20:03.514Z,3.00
2022-12-19T02:22:45.790Z,2.72
2022-12-19T02:25:49.829Z,3.28
2022-12-19T02:29:01.660Z,2.75
2022-12-19T02:31:35.475Z,2.70
2022-12-19T02:34:22.009Z,3.72
2022-12-19T02:36:54.636Z,2.80
2022-12-19T02:39:33.730Z,4.22
2022-12-19T02:42:06.770Z,3.38
2022-12-19T02:44:42.147Z,2.65
2022-12-19T02:47:12.993Z,3.50
2022-12-19T02:49:40.764Z,3.10
2022-12-19T02:52:13.054Z,3.33
2022-12-19T02:54:44.850Z,3.85
2022-12-19T02:57:23.855Z,2.53
2022-12-19T03:00:04.622Z,4.15
2022-12-19T03:03:00.629Z,3.40
2022-12-19T03:05:41.100Z,1.77
2022-12-19T03:08:22.016Z,3.50
2022-12-19T03:11:00.232Z,2.72
2022-12-19T03:13:34.849Z,1.95
2022-12-19T03:18:35.109Z,3.15
2022-12-19T03:21:11.868Z,3.50
2022-12-19T03:23:41.602Z,3.90
2022-12-19T03:26:17.441Z,4.45
2022-12-19T03:28:53.402Z,3.95
2022-12-19T03:31:25.531Z,4.47
2022-12-19T03:34:00.893Z,4.20
2022-12-19T03:36:34.225Z,4.25
2022-12-19T03:39:07.346Z,3.53
2022-12-19T03:41:56.469Z,3.80
2022-12-19T03:44:29.302Z,3.95
2022-12-19T03:47:06.720Z,4.10
2022-12-19T03:49:37.477Z,4.68
2022-12-19T03:52:25.772Z,5.20
2022-12-19T03:55:04.496Z,1.88
2022-12-19T03:57:41.123Z,4.45
2022-12-19T04:00:14.291Z,5.03
2022-12-19T04:02:47.356Z,4.15
2022-12-19T04:05:22.390Z,3.33
2022-12-19T04:07:53.901Z,3.33
2022-12-19T04:10:26.760Z,5.38
2022-12-19T04:13:01.052Z,4.18
2022-12-19T04:15:39.962Z,5.72
2022-12-19T04:18:10.769Z,4.28
2022-12-19T04:20:45.832Z,3.22
2022-12-19T04:23:22.056Z,3.95
2022-12-19T04:25:55.760Z,3.38
2022-12-19T04:28:33.464Z,3.90
2022-12-19T04:31:02.973Z,3.38
2022-12-19T04:33:30.854Z,3.33
2022-12-19T04:36:01.128Z,4.63
2022-12-19T04:38:29.125Z,2.72
2022-12-19T04:40:57.440Z,3.13
2022-12-19T04:43:25.251Z,2.53
2022-12-19T04:45:57.282Z,2.83
2022-12-19T04:48:25.626Z,2.58
2022-12-19T04:50:53.742Z,3.08
2022-12-19T04:53:22.853Z,3.67
2022-12-19T04:55:50.637Z,5.25
2022-12-19T04:58:22.030Z,3.47
2022-12-19T05:00:50.453Z,2.97
2022-12-19T05:03:18.340Z,4.13
2022-12-19T05:05:46.307Z,2.90
2022-12-19T05:08:14.105Z,3.83
2022-12-19T05:10:43.200Z,2.95
2022-12-19T05:13:11.762Z,4.30
2022-12-19T05:15:39.613Z,3.85
2022-12-19T05:18:07.716Z,2.92
2022-12-19T05:20:37.714Z,3.15
2022-12-19T05:23:10.160Z,2.45
2022-12-19T05:25:44.480Z,3.53
2022-12-19T05:28:12.643Z,3.88
2022-12-19T05:30:42.076Z,3.83
2022-12-19T05:33:10.066Z,3.53
2022-12-19T05:35:39.103Z,2.58
2022-12-19T05:38:07.014Z,2.55
2022-12-19T05:40:35.337Z,3.67
2022-12-19T05:43:04.794Z,2.90
2022-12-19T05:45:32.537Z,4.32
2022-12-19T05:48:01.655Z,5.72
2022-12-19T05:50:29.676Z,3.60
2022-12-19T05:52:57.385Z,4.72
2022-12-19T05:55:25.638Z,2.75
2022-12-19T05:57:53.437Z,3.33
2022-12-19T06:00:22.832Z,3.78
2022-12-19T06:02:50.669Z,3.47
2022-12-19T06:05:18.745Z,2.78
2022-12-19T06:07:46.492Z,3.92
2022-12-19T06:10:14.301Z,4.35
2022-12-19T06:12:42.033Z,2.78
2022-12-19T06:15:11.073Z,3.92
2022-12-19T06:17:40.379Z,3.67
2022-12-19T06:20:09.424Z,3.20
2022-12-19T06:22:37.519Z,3.10
2022-12-19T06:25:06.493Z,3.70
2022-12-19T06:27:34.684Z,3.60
2022-12-19T06:30:02.397Z,3.17
2022-12-19T06:32:36.212Z,2.85
2022-12-19T06:35:08.948Z,2.08
2022-12-19T06:37:39.367Z,4.05
2022-12-19T06:40:30.728Z,2.75
2022-12-19T06:42:57.806Z,2.78
2022-12-19T06:45:25.553Z,3.40
2022-12-19T06:47:53.605Z,2.03
2022-12-19T06:50:22.702Z,2.78
2022-12-19T06:52:50.560Z,2.85
2022-12-19T06:55:18.594Z,3.63
2022-12-19T06:57:47.771Z,3.58
2022-12-19T07:00:16.871Z,2.72
2022-12-19T07:02:50.302Z,3.15
2022-12-19T07:05:18.289Z,3.10
2022-12-19T07:07:47.406Z,2.53
2022-12-19T07:10:15.528Z,3.67
2022-12-19T07:12:43.281Z,2.30
2022-12-19T07:15:11.994Z,2.25
2022-12-19T07:17:40.537Z,1.65
2022-12-19T07:20:10.183Z,1.83
2022-12-19T07:22:38.609Z,1.80
2022-12-19T07:25:09.906Z,2.38
2022-12-19T07:27:38.202Z,2.63
2022-12-19T07:30:08.821Z,3.10
2022-12-19T07:32:36.957Z,2.10
2022-12-19T07:35:05.434Z,2.45
2022-12-19T07:37:33.201Z,3.25
2022-12-19T07:40:01.223Z,1.83
2022-12-19T07:42:32.636Z,1.65
2022-12-19T07:45:01.526Z,2.17
2022-12-19T07:47:29.430Z,2.70
2022-12-19T07:49:57.200Z,2.08
2022-12-19T07:52:24.983Z,2.55
2022-12-19T07:54:52.698Z,1.83
2022-12-19T07:57:20.949Z,2.28
2022-12-19T07:59:50.358Z,2.58
2022-12-19T08:02:18.257Z,2.78
2022-12-19T08:04:46.069Z,3.10
2022-12-19T08:07:13.955Z,2.40
2022-12-19T08:09:41.719Z,2.15
2022-12-19T08:12:10.271Z,2.28
2022-12-19T08:14:38.040Z,2.58
2022-12-19T08:17:22.972Z,2.78
2022-12-19T08:22:18.511Z,2.10
2022-12-19T08:24:46.329Z,2.78
2022-12-19T08:27:14.205Z,2.53
2022-12-19T08:29:41.962Z,2.50
2022-12-19T08:32:13.339Z,1.98
2022-12-19T08:34:46.096Z,2.97
2022-12-19T08:37:13.827Z,2.70
2022-12-19T08:39:41.584Z,2.45
2022-12-19T08:42:10.515Z,2.45
2022-12-19T08:44:38.245Z,3.28
2022-12-19T08:47:06.321Z,2.90
2022-12-19T08:49:35.480Z,3.80
2022-12-19T08:52:03.607Z,3.25
2022-12-19T08:54:31.488Z,2.22
2022-12-19T08:56:59.600Z,3.40
2022-12-19T08:59:30.940Z,3.10
2022-12-19T09:02:00.856Z,1.90
2022-12-19T09:06:00.333Z,2.53
2022-12-19T09:07:18.420Z,2.08
2022-12-19T09:09:46.590Z,2.33
2022-12-19T09:12:16.124Z,1.95
2022-12-19T09:14:44.909Z,2.80
2022-12-19T09:17:12.799Z,2.83
2022-12-19T09:19:42.618Z,2.03
2022-12-19T09:24:44.571Z,2.88
2022-12-19T09:27:12.333Z,2.28
2022-12-19T09:29:41.953Z,1.70
2022-12-19T09:32:09.670Z,1.70
2022-12-19T09:34:39.108Z,1.42
2022-12-19T09:37:09.285Z,1.95
2022-12-19T09:39:47.089Z,2.05
2022-12-19T09:42:41.354Z,2.08
2022-12-19T09:45:35.190Z,2.83
2022-12-19T09:48:05.685Z,1.92
2022-12-19T09:50:50.895Z,2.10
2022-12-19T09:53:28.782Z,1.55
2022-12-19T09:56:00.667Z,2.30
2022-12-19T09:58:38.419Z,1.48
2022-12-19T10:01:16.502Z,2.20
2022-12-19T10:03:55.386Z,2.53
2022-12-19T10:07:03.577Z,2.42
2022-12-19T10:11:18.147Z,3.00
2022-12-19T10:12:45.957Z,2.35
2022-12-19T10:15:27.090Z,2.42
2022-12-19T10:18:18.692Z,2.85
2022-12-19T10:20:54.838Z,2.55
2022-12-19T10:23:54.260Z,3.33
2022-12-19T10:26:31.027Z,3.38
2022-12-19T10:29:24.569Z,3.13
2022-12-19T10:32:04.269Z,2.42
2022-12-19T10:34:41.202Z,4.03
2022-12-19T10:37:25.781Z,2.30
2022-12-19T10:42:49.534Z,2.40
2022-12-19T10:47:57.336Z,3.38
2022-12-19T10:50:29.512Z,2.88
2022-12-19T10:53:10.179Z,2.63
2022-12-19T10:55:46.025Z,2.65
2022-12-19T10:58:27.143Z,3.00
2022-12-19T11:01:11.568Z,2.75
2022-12-19T11:03:42.233Z,2.53
2022-12-19T11:06:45.833Z,3.38
2022-12-19T11:09:31.779Z,3.60
2022-12-19T11:16:37.179Z,3.10
2022-12-19T11:19:47.138Z,2.65
2022-12-19T11:27:51.236Z,4.65
2022-12-19T11:29:35.182Z,3.55
2022-12-19T11:29:37.054Z,3.00
2022-12-19T11:30:25.640Z,2.78
2022-12-19T11:32:41.855Z,3.33
2022-12-19T11:35:24.343Z,3.53
2022-12-19T11:37:57.613Z,2.78
2022-12-19T11:40:37.407Z,3.15
2022-12-19T11:46:13.880Z,2.78
2022-12-19T11:48:53.313Z,2.95
2022-12-19T11:51:32.293Z,1.73
2022-12-19T11:54:11.375Z,3.30
2022-12-19T11:56:39.490Z,2.88
2022-12-19T11:59:17.969Z,3.03
2022-12-19T12:02:03.500Z,2.22
2022-12-19T12:05:10.211Z,2.17
2022-12-19T12:08:33.899Z,1.88
2022-12-19T12:12:46.659Z,2.17
2022-12-19T12:21:01.912Z,2.63
2022-12-19T12:31:00.904Z,2.05
2022-12-19T12:31:10.203Z,2.80
2022-12-19T12:31:21.176Z,2.40
2022-12-19T12:31:44.952Z,2.15
2022-12-19T12:31:53.741Z,2.20
2022-12-19T12:35:47.063Z,1.98
2022-12-19T12:38:49.800Z,1.65
2022-12-19T12:41:51.033Z,1.27
2022-12-19T12:44:19.045Z,2.53
2022-12-19T12:47:12.001Z,2.92
2022-12-19T12:49:44.467Z,1.88
2022-12-19T12:52:21.223Z,2.20
2022-12-19T12:54:52.071Z,2.40
2022-12-19T12:57:35.922Z,2.83
2022-12-19T13:00:25.671Z,2.50
2022-12-19T13:03:06.117Z,2.33
2022-12-19T13:05:41.525Z,2.25
2022-12-19T13:08:35.283Z,2.10
2022-12-19T13:11:07.852Z,2.60
2022-12-19T13:14:03.410Z,2.40
2022-12-19T13:16:53.352Z,2.78
2022-12-19T13:19:28.641Z,3.13
2022-12-19T13:22:38.889Z,3.00
2022-12-19T13:25:49.357Z,2.38
2022-12-19T13:28:42.333Z,7.10
2022-12-19T13:31:23.625Z,3.92
2022-12-19T13:34:19.333Z,2.08
2022-12-19T13:39:52.181Z,2.05
2022-12-19T13:40:11.005Z,2.05
2022-12-19T13:43:12.427Z,2.13
2022-12-19T13:45:50.604Z,2.22
2022-12-19T13:48:32.148Z,1.85
2022-12-19T13:51:06.059Z,2.28
2022-12-19T13:53:33.947Z,2.22
2022-12-19T13:56:05.625Z,1.77
2022-12-19T13:58:42.885Z,1.95
2022-12-19T14:01:24.824Z,2.60
2022-12-19T14:03:56.550Z,2.05
2022-12-19T14:06:31.020Z,1.90
2022-12-19T14:11:24.810Z,2.60
2022-12-19T14:13:49.117Z,2.05
2022-12-19T14:15:13.407Z,1.92
2022-12-19T14:17:49.126Z,2.03
2022-12-19T14:22:11.605Z,2.60
2022-12-19T14:23:09.305Z,2.00
2022-12-19T14:28:15.674Z,2.10
2022-12-19T14:28:48.947Z,2.63
2022-12-19T14:31:22.356Z,2.92
2022-12-19T14:34:18.570Z,2.28
2022-12-19T14:36:50.742Z,2.35
2022-12-19T14:39:28.838Z,1.98
2022-12-19T14:42:24.208Z,2.60
2022-12-19T14:53:17.517Z,2.80
2022-12-19T14:53:52.316Z,2.67
2022-12-19T14:54:28.277Z,2.13
2022-12-19T14:58:17.196Z,2.30
2022-12-19T15:01:07.139Z,2.28
2022-12-19T15:03:25.860Z,1.73
2022-12-19T15:07:04.872Z,1.70
2022-12-19T15:10:58.596Z,2.58
2022-12-19T15:14:48.758Z,1.67
2022-12-19T15:15:19.160Z,2.30
2022-12-19T15:17:50.456Z,1.35
2022-12-19T15:20:18.602Z,2.38
2022-12-19T15:22:46.740Z,2.10
2022-12-19T15:25:52.637Z,1.85
2022-12-19T15:28:15.675Z,2.28
2022-12-19T15:30:49.445Z,2.90
2022-12-19T15:33:18.332Z,3.23
2022-12-19T15:35:46.178Z,2.63
2022-12-19T15:38:14.008Z,2.58
2022-12-19T15:40:50.731Z,1.75
2022-12-19T15:44:01.215Z,1.83
2022-12-19T15:46:13.531Z,2.10
2022-12-19T15:48:48.901Z,2.08
2022-12-19T15:51:17.095Z,2.00
2022-12-19T15:53:45.747Z,2.10
2022-12-19T15:56:29.036Z,2.08
2022-12-19T15:59:00.609Z,1.77
2022-12-19T16:01:32.086Z,1.95
2022-12-19T16:04:03.359Z,1.50
2022-12-19T16:06:32.259Z,1.88
2022-12-19T16:09:00.669Z,1.80
2022-12-19T16:11:30.350Z,1.75
2022-12-19T16:13:59.735Z,2.00
2022-12-19T16:16:27.498Z,2.15
2022-12-19T16:18:55.274Z,1.38
2022-12-19T16:21:33.757Z,1.95
2022-12-19T16:24:02.196Z,1.80
2022-12-19T16:26:36.774Z,1.17
2022-12-19T16:29:06.417Z,2.10
2022-12-19T16:31:34.162Z,2.28
2022-12-19T16:34:02.322Z,2.38
2022-12-19T16:36:30.142Z,1.95
2022-12-19T16:38:57.858Z,2.22
2022-12-19T16:41:27.665Z,1.55
2022-12-19T16:43:57.410Z,1.95
2022-12-19T16:46:30.459Z,2.40
2022-12-19T16:48:58.486Z,1.65
2022-12-19T16:51:28.864Z,1.48
2022-12-19T16:54:00.124Z,1.98
2022-12-19T16:56:33.821Z,1.50
2022-12-19T16:59:08.304Z,2.37
2022-12-19T17:01:36.864Z,2.30
2022-12-19T17:04:05.157Z,1.55
2022-12-19T17:06:33.025Z,1.67
2022-12-19T17:09:00.720Z,1.65
2022-12-19T17:11:30.056Z,2.45
2022-12-19T17:14:08.182Z,2.22
2022-12-19T17:16:36.414Z,1.67
2022-12-19T17:19:04.348Z,2.03
2022-12-19T17:21:32.493Z,2.63
2022-12-19T17:24:00.251Z,2.13
2022-12-19T17:26:28.014Z,1.98
2022-12-19T17:28:56.096Z,1.98
2022-12-19T17:31:29.264Z,2.92
2022-12-19T17:33:59.242Z,1.63
2022-12-19T17:36:36.648Z,1.90
2022-12-19T17:39:19.652Z,2.78
2022-12-19T17:41:47.794Z,2.00
2022-12-19T17:44:17.700Z,2.33
2022-12-19T17:46:49.044Z,2.28
2022-12-19T17:49:19.111Z,1.77
2022-12-19T17:51:52.220Z,1.98
2022-12-19T17:54:20.539Z,1.42
2022-12-19T17:56:48.459Z,2.83
2022-12-19T17:59:17.071Z,1.25
2022-12-19T18:01:47.302Z,1.25
2022-12-19T18:04:18.939Z,1.30
2022-12-19T18:06:47.785Z,1.45
2022-12-19T18:09:20.880Z,1.25
2022-12-19T18:11:49.785Z,1.42
2022-12-19T18:14:18.333Z,2.05
2022-12-19T18:16:49.141Z,2.05
2022-12-19T18:19:20.762Z,3.08
2022-12-19T18:21:49.542Z,2.08
2022-12-19T18:24:17.668Z,1.73
2022-12-19T18:26:45.984Z,1.67
2022-12-19T18:29:15.164Z,1.77
2022-12-19T18:31:50.399Z,1.52
2022-12-19T18:34:25.060Z,1.63
2022-12-19T18:36:54.504Z,1.63
2022-12-19T18:39:25.369Z,1.65
2022-12-19T18:41:54.501Z,1.65
2022-12-19T18:44:23.439Z,2.40
2022-12-19T18:46:52.717Z,2.20
2022-12-19T18:49:22.747Z,1.23
2022-12-19T18:51:50.514Z,1.70
2022-12-19T18:54:22.120Z,1.67
2022-12-19T18:56:49.869Z,2.72
2022-12-19T18:59:17.661Z,1.40
2022-12-19T19:01:47.813Z,2.05
2022-12-19T19:04:17.530Z,1.88
2022-12-19T19:06:52.322Z,1.63
2022-12-19T19:09:22.430Z,1.52
2022-12-19T19:11:50.204Z,1.98
2022-12-19T19:14:18.814Z,2.13
2022-12-19T19:16:46.615Z,1.73
2022-12-19T19:19:19.277Z,1.58
2022-12-19T19:21:48.430Z,1.98
2022-12-19T19:24:19.790Z,2.15
2022-12-19T19:26:47.641Z,2.60
2022-12-19T19:29:15.583Z,1.88
2022-12-19T19:31:49.451Z,1.85
2022-12-19T19:34:24.272Z,1.95
2022-12-19T19:36:58.544Z,1.55
2022-12-19T19:39:27.622Z,1.77
2022-12-19T19:41:56.149Z,1.70
2022-12-19T19:44:25.027Z,1.65
2022-12-19T19:46:52.829Z,1.90
2022-12-19T19:49:21.271Z,1.35
2022-12-19T19:51:49.170Z,2.70
2022-12-19T19:54:18.515Z,1.58
2022-12-19T19:56:46.285Z,1.83
2022-12-19T19:59:14.069Z,1.58
2022-12-19T20:01:41.955Z,1.60
2022-12-19T20:04:09.843Z,2.33
2022-12-19T20:06:37.621Z,2.25
2022-12-19T20:09:06.085Z,2.13
2022-12-19T20:11:35.162Z,2.03
2022-12-19T20:14:04.319Z,1.58
2022-12-19T20:16:32.314Z,1.92
2022-12-19T20:19:00.153Z,2.33
2022-12-19T20:21:30.591Z,2.20
2022-12-19T20:23:58.342Z,1.67
2022-12-19T20:26:26.231Z,2.15
2022-12-19T20:28:55.339Z,2.50
2022-12-19T20:31:24.930Z,2.00
2022-12-19T20:33:55.815Z,2.70
2022-12-19T20:36:24.987Z,1.95
2022-12-19T20:38:53.024Z,1.90
2022-12-19T20:41:20.908Z,1.70
2022-12-19T20:43:49.293Z,1.23
2022-12-19T20:46:22.329Z,1.70
2022-12-19T20:48:51.186Z,2.47
2022-12-19T20:51:22.305Z,1.88
2022-12-19T20:53:54.539Z,2.35
2022-12-19T20:56:25.657Z,1.73
2022-12-19T20:58:53.805Z,1.80
2022-12-19T21:01:25.646Z,1.90
2022-12-19T21:03:53.787Z,1.85
2022-12-19T21:06:25.238Z,1.42
2022-12-19T21:08:52.983Z,1.27
2022-12-19T21:11:20.826Z,2.30
2022-12-19T21:13:48.692Z,1.88
2022-12-19T21:16:20.723Z,1.20
2022-12-19T21:18:51.538Z,2.38
2022-12-19T21:21:22.588Z,2.13
2022-12-19T21:23:51.467Z,2.10
2022-12-19T21:26:21.594Z,1.85
2022-12-19T21:28:49.900Z,1.27
2022-12-19T21:31:21.408Z,2.88
2022-12-19T21:33:51.303Z,1.88
2022-12-19T21:36:23.374Z,2.03
2022-12-19T21:38:53.643Z,2.22
2022-12-19T21:41:22.408Z,1.27
2022-12-19T21:43:53.532Z,2.45
2022-12-19T21:46:25.332Z,1.55
2022-12-19T21:48:57.133Z,2.08
2022-12-19T21:51:28.226Z,1.85
2022-12-19T21:54:00.334Z,1.63
2022-12-19T21:56:30.841Z,0.85
2022-12-19T21:59:01.738Z,1.35
2022-12-19T22:01:31.483Z,1.83
2022-12-19T22:04:04.021Z,3.45
2022-12-19T22:06:36.920Z,2.10
2022-12-19T22:09:07.621Z,2.80
2022-12-19T22:11:37.549Z,2.85
2022-12-19T22:14:06.864Z,1.38
2022-12-19T22:16:37.189Z,1.33
2022-12-19T22:19:07.352Z,1.35
2022-12-19T22:21:36.907Z,1.35
2022-12-19T22:24:06.174Z,1.42
2022-12-19T22:26:35.016Z,1.85
2022-12-19T22:29:06.880Z,1.33
2022-12-19T22:31:35.885Z,0.85
2022-12-19T22:34:08.076Z,2.10
2022-12-19T22:36:38.196Z,1.67
2022-12-19T22:39:09.031Z,1.38
2022-12-19T22:41:38.810Z,1.05
2022-12-19T22:44:07.854Z,2.08
2022-12-19T22:46:38.676Z,1.10
2022-12-19T22:49:09.688Z,1.65
2022-12-19T22:51:38.699Z,1.33
2022-12-19T22:54:07.821Z,1.35
2022-12-19T22:56:37.124Z,1.45
2022-12-19T22:59:08.524Z,1.75
2022-12-19T23:01:40.245Z,2.00
2022-12-19T23:04:13.425Z,1.52
2022-12-19T23:06:42.024Z,1.70
2022-12-19T23:09:13.734Z,1.92
2022-12-19T23:11:44.897Z,1.77
2022-12-19T23:14:15.613Z,1.85
2022-12-19T23:16:44.512Z,2.30
2022-12-19T23:19:15.999Z,1.50
2022-12-19T23:21:43.857Z,2.63
2022-12-19T23:24:12.613Z,2.17
2022-12-19T23:26:40.705Z,1.38
2022-12-19T23:29:11.274Z,1.50
2022-12-19T23:31:41.170Z,0.82
2022-12-19T23:34:10.387Z,0.77
2022-12-19T23:39:27.664Z,1.10
2022-12-19T23:41:55.485Z,1.45
2022-12-19T23:44:23.443Z,1.33
2022-12-19T23:46:52.190Z,1.90
2022-12-19T23:49:19.913Z,1.30
2022-12-19T23:51:49.008Z,1.58
2022-12-19T23:54:16.813Z,1.75
2022-12-19T23:56:44.530Z,1.27
2022-12-19T23:59:12.220Z,1.55
